!!! Benutzen Sie für Ihre Flugvorbereitung die offiziellen Quellen !!!

Metar:

EDQM 290750Z 24010KT CAVOK 11/05 Q1025

QNH: 1025
Temperatur: 11
Dew Point : 5

 

METAR (decoded)